sensor_id;sensor_type;location;lat;lon;timestamp;P1;durP1;ratioP1;P2;durP2;ratioP2
81544;SDS011;70990;50.618;7.346;2023-06-24T00:00:55;8.13;;;3.60;;
81544;SDS011;70990;50.618;7.346;2023-06-24T00:03:23;10.07;;;3.53;;
81544;SDS011;70990;50.618;7.346;2023-06-24T00:05:52;7.43;;;3.80;;
81544;SDS011;70990;50.618;7.346;2023-06-24T00:08:23;8.77;;;4.43;;
81544;SDS011;70990;50.618;7.346;2023-06-24T00:11:02;7.22;;;3.58;;
81544;SDS011;70990;50.618;7.346;2023-06-24T00:13:28;8.55;;;3.90;;
81544;SDS011;70990;50.618;7.346;2023-06-24T00:15:54;7.32;;;4.20;;
81544;SDS011;70990;50.618;7.346;2023-06-24T00:18:20;9.10;;;4.25;;
81544;SDS011;70990;50.618;7.346;2023-06-24T00:20:52;7.40;;;4.13;;
81544;SDS011;70990;50.618;7.346;2023-06-24T00:23:24;7.88;;;3.70;;
81544;SDS011;70990;50.618;7.346;2023-06-24T00:25:59;11.23;;;3.53;;
81544;SDS011;70990;50.618;7.346;2023-06-24T00:28:27;8.00;;;4.03;;
81544;SDS011;70990;50.618;7.346;2023-06-24T00:30:53;8.23;;;4.25;;
81544;SDS011;70990;50.618;7.346;2023-06-24T00:33:25;6.78;;;3.63;;
81544;SDS011;70990;50.618;7.346;2023-06-24T00:35:51;7.68;;;3.85;;
81544;SDS011;70990;50.618;7.346;2023-06-24T00:38:25;8.90;;;4.00;;
81544;SDS011;70990;50.618;7.346;2023-06-24T00:40:59;7.82;;;3.90;;
81544;SDS011;70990;50.618;7.346;2023-06-24T00:43:27;7.50;;;3.72;;
81544;SDS011;70990;50.618;7.346;2023-06-24T00:45:57;9.00;;;4.50;;
81544;SDS011;70990;50.618;7.346;2023-06-24T00:48:23;6.95;;;3.53;;
81544;SDS011;70990;50.618;7.346;2023-06-24T00:50:58;7.60;;;4.15;;
81544;SDS011;70990;50.618;7.346;2023-06-24T00:53:29;7.80;;;3.47;;
81544;SDS011;70990;50.618;7.346;2023-06-24T00:56:07;8.75;;;3.95;;
81544;SDS011;70990;50.618;7.346;2023-06-24T00:58:41;7.53;;;4.00;;
81544;SDS011;70990;50.618;7.346;2023-06-24T01:01:08;9.30;;;4.15;;
81544;SDS011;70990;50.618;7.346;2023-06-24T01:03:37;9.60;;;3.95;;
81544;SDS011;70990;50.618;7.346;2023-06-24T01:06:10;7.35;;;3.35;;
81544;SDS011;70990;50.618;7.346;2023-06-24T01:08:46;8.88;;;4.20;;
81544;SDS011;70990;50.618;7.346;2023-06-24T01:11:32;8.52;;;3.83;;
81544;SDS011;70990;50.618;7.346;2023-06-24T01:14:11;8.20;;;4.13;;
81544;SDS011;70990;50.618;7.346;2023-06-24T01:20:02;8.00;;;4.05;;
81544;SDS011;70990;50.618;7.346;2023-06-24T01:37:26;9.88;;;4.07;;
81544;SDS011;70990;50.618;7.346;2023-06-24T01:40:09;8.50;;;4.78;;
81544;SDS011;70990;50.618;7.346;2023-06-24T01:42:39;10.13;;;5.05;;
81544;SDS011;70990;50.618;7.346;2023-06-24T01:45:16;9.68;;;5.00;;
81544;SDS011;70990;50.618;7.346;2023-06-24T01:47:47;9.82;;;4.80;;
81544;SDS011;70990;50.618;7.346;2023-06-24T01:50:17;10.75;;;5.05;;
81544;SDS011;70990;50.618;7.346;2023-06-24T01:52:49;11.98;;;4.60;;
81544;SDS011;70990;50.618;7.346;2023-06-24T01:55:21;9.27;;;5.65;;
81544;SDS011;70990;50.618;7.346;2023-06-24T01:57:59;10.75;;;5.50;;
81544;SDS011;70990;50.618;7.346;2023-06-24T02:01:12;9.13;;;4.85;;
81544;SDS011;70990;50.618;7.346;2023-06-24T02:03:47;9.57;;;5.05;;
81544;SDS011;70990;50.618;7.346;2023-06-24T02:06:14;9.02;;;5.05;;
81544;SDS011;70990;50.618;7.346;2023-06-24T02:08:41;8.93;;;5.18;;
81544;SDS011;70990;50.618;7.346;2023-06-24T02:11:17;9.65;;;5.35;;
81544;SDS011;70990;50.618;7.346;2023-06-24T02:13:46;8.80;;;4.63;;
81544;SDS011;70990;50.618;7.346;2023-06-24T02:16:15;10.25;;;5.13;;
81544;SDS011;70990;50.618;7.346;2023-06-24T02:18:42;8.93;;;4.75;;
81544;SDS011;70990;50.618;7.346;2023-06-24T02:21:11;10.05;;;5.00;;
81544;SDS011;70990;50.618;7.346;2023-06-24T02:23:43;11.95;;;5.68;;
81544;SDS011;70990;50.618;7.346;2023-06-24T02:26:13;8.82;;;4.85;;
81544;SDS011;70990;50.618;7.346;2023-06-24T02:28:43;10.13;;;5.07;;
81544;SDS011;70990;50.618;7.346;2023-06-24T02:31:10;11.65;;;5.07;;
81544;SDS011;70990;50.618;7.346;2023-06-24T02:33:38;9.32;;;5.05;;
81544;SDS011;70990;50.618;7.346;2023-06-24T02:36:07;10.52;;;5.40;;
81544;SDS011;70990;50.618;7.346;2023-06-24T02:38:35;9.80;;;5.22;;
81544;SDS011;70990;50.618;7.346;2023-06-24T02:41:06;9.48;;;4.95;;
81544;SDS011;70990;50.618;7.346;2023-06-24T02:43:34;9.55;;;5.35;;
81544;SDS011;70990;50.618;7.346;2023-06-24T02:46:09;11.30;;;6.05;;
81544;SDS011;70990;50.618;7.346;2023-06-24T02:48:39;10.60;;;5.82;;
81544;SDS011;70990;50.618;7.346;2023-06-24T02:51:10;11.90;;;5.57;;
81544;SDS011;70990;50.618;7.346;2023-06-24T02:53:41;10.27;;;5.78;;
81544;SDS011;70990;50.618;7.346;2023-06-24T02:56:11;9.68;;;5.80;;
81544;SDS011;70990;50.618;7.346;2023-06-24T02:58:40;9.70;;;5.10;;
81544;SDS011;70990;50.618;7.346;2023-06-24T03:01:22;9.68;;;5.70;;
81544;SDS011;70990;50.618;7.346;2023-06-24T03:04:07;10.77;;;5.32;;
81544;SDS011;70990;50.618;7.346;2023-06-24T03:06:42;10.82;;;5.97;;
81544;SDS011;70990;50.618;7.346;2023-06-24T03:09:09;9.90;;;5.38;;
81544;SDS011;70990;50.618;7.346;2023-06-24T03:11:42;10.35;;;5.43;;
81544;SDS011;70990;50.618;7.346;2023-06-24T03:14:11;9.80;;;6.00;;
81544;SDS011;70990;50.618;7.346;2023-06-24T03:16:46;12.55;;;6.20;;
81544;SDS011;70990;50.618;7.346;2023-06-24T03:19:17;9.82;;;5.93;;
81544;SDS011;70990;50.618;7.346;2023-06-24T03:21:43;10.95;;;6.53;;
81544;SDS011;70990;50.618;7.346;2023-06-24T03:24:14;9.40;;;6.03;;
81544;SDS011;70990;50.618;7.346;2023-06-24T03:26:45;10.23;;;6.00;;
81544;SDS011;70990;50.618;7.346;2023-06-24T03:29:17;9.38;;;5.68;;
81544;SDS011;70990;50.618;7.346;2023-06-24T03:31:59;10.82;;;5.88;;
81544;SDS011;70990;50.618;7.346;2023-06-24T03:34:27;10.55;;;5.65;;
81544;SDS011;70990;50.618;7.346;2023-06-24T03:36:53;9.57;;;6.45;;
81544;SDS011;70990;50.618;7.346;2023-06-24T03:39:20;12.77;;;6.60;;
81544;SDS011;70990;50.618;7.346;2023-06-24T03:41:52;12.98;;;6.10;;
81544;SDS011;70990;50.618;7.346;2023-06-24T03:44:28;12.55;;;6.18;;
81544;SDS011;70990;50.618;7.346;2023-06-24T03:46:57;10.57;;;6.32;;
81544;SDS011;70990;50.618;7.346;2023-06-24T03:49:25;12.43;;;6.70;;
81544;SDS011;70990;50.618;7.346;2023-06-24T03:51:51;11.77;;;6.55;;
81544;SDS011;70990;50.618;7.346;2023-06-24T03:54:17;12.05;;;6.88;;
81544;SDS011;70990;50.618;7.346;2023-06-24T03:56:53;10.57;;;6.90;;
81544;SDS011;70990;50.618;7.346;2023-06-24T03:59:22;11.20;;;6.20;;
81544;SDS011;70990;50.618;7.346;2023-06-24T04:01:47;11.38;;;5.75;;
81544;SDS011;70990;50.618;7.346;2023-06-24T04:04:15;8.40;;;5.10;;
81544;SDS011;70990;50.618;7.346;2023-06-24T04:06:44;8.68;;;5.30;;
81544;SDS011;70990;50.618;7.346;2023-06-24T04:09:12;11.27;;;6.43;;
81544;SDS011;70990;50.618;7.346;2023-06-24T04:11:39;9.20;;;4.93;;
81544;SDS011;70990;50.618;7.346;2023-06-24T04:14:04;11.13;;;5.80;;
81544;SDS011;70990;50.618;7.346;2023-06-24T04:16:32;9.15;;;5.13;;
81544;SDS011;70990;50.618;7.346;2023-06-24T04:19:00;9.18;;;5.07;;
81544;SDS011;70990;50.618;7.346;2023-06-24T04:21:26;11.57;;;5.60;;
81544;SDS011;70990;50.618;7.346;2023-06-24T04:23:55;13.18;;;5.57;;
81544;SDS011;70990;50.618;7.346;2023-06-24T04:26:25;11.25;;;5.43;;
81544;SDS011;70990;50.618;7.346;2023-06-24T04:28:59;9.15;;;5.15;;
81544;SDS011;70990;50.618;7.346;2023-06-24T04:31:25;11.10;;;5.88;;
81544;SDS011;70990;50.618;7.346;2023-06-24T04:33:51;11.77;;;5.80;;
81544;SDS011;70990;50.618;7.346;2023-06-24T04:36:17;11.80;;;5.93;;
81544;SDS011;70990;50.618;7.346;2023-06-24T04:38:47;10.70;;;5.55;;
81544;SDS011;70990;50.618;7.346;2023-06-24T04:41:12;10.52;;;6.18;;
81544;SDS011;70990;50.618;7.346;2023-06-24T04:43:38;12.15;;;5.47;;
81544;SDS011;70990;50.618;7.346;2023-06-24T04:46:03;10.32;;;6.00;;
81544;SDS011;70990;50.618;7.346;2023-06-24T04:48:31;11.23;;;5.30;;
81544;SDS011;70990;50.618;7.346;2023-06-24T04:50:57;9.32;;;5.30;;
81544;SDS011;70990;50.618;7.346;2023-06-24T04:53:23;9.65;;;5.43;;
81544;SDS011;70990;50.618;7.346;2023-06-24T04:55:48;11.70;;;6.47;;
81544;SDS011;70990;50.618;7.346;2023-06-24T04:58:14;11.25;;;5.63;;
81544;SDS011;70990;50.618;7.346;2023-06-24T05:00:43;11.40;;;5.97;;
81544;SDS011;70990;50.618;7.346;2023-06-24T05:03:11;8.45;;;4.85;;
81544;SDS011;70990;50.618;7.346;2023-06-24T05:05:36;11.90;;;5.70;;
81544;SDS011;70990;50.618;7.346;2023-06-24T05:08:02;14.35;;;7.22;;
81544;SDS011;70990;50.618;7.346;2023-06-24T05:10:28;10.45;;;5.47;;
81544;SDS011;70990;50.618;7.346;2023-06-24T05:13:05;11.65;;;7.03;;
81544;SDS011;70990;50.618;7.346;2023-06-24T05:15:34;11.25;;;6.03;;
81544;SDS011;70990;50.618;7.346;2023-06-24T05:18:05;12.27;;;6.35;;
81544;SDS011;70990;50.618;7.346;2023-06-24T05:20:33;11.75;;;5.75;;
81544;SDS011;70990;50.618;7.346;2023-06-24T05:22:59;10.52;;;5.82;;
81544;SDS011;70990;50.618;7.346;2023-06-24T05:25:25;12.32;;;5.38;;
81544;SDS011;70990;50.618;7.346;2023-06-24T05:30:21;9.90;;;5.22;;
81544;SDS011;70990;50.618;7.346;2023-06-24T05:32:54;13.50;;;5.40;;
81544;SDS011;70990;50.618;7.346;2023-06-24T05:35:20;11.95;;;6.20;;
81544;SDS011;70990;50.618;7.346;2023-06-24T05:37:46;10.70;;;5.05;;
81544;SDS011;70990;50.618;7.346;2023-06-24T05:40:15;12.38;;;6.25;;
81544;SDS011;70990;50.618;7.346;2023-06-24T05:42:43;14.32;;;6.22;;
81544;SDS011;70990;50.618;7.346;2023-06-24T05:45:09;12.00;;;6.05;;
81544;SDS011;70990;50.618;7.346;2023-06-24T05:47:35;13.15;;;6.35;;
81544;SDS011;70990;50.618;7.346;2023-06-24T05:50:01;9.85;;;5.50;;
81544;SDS011;70990;50.618;7.346;2023-06-24T05:52:29;10.18;;;5.85;;
81544;SDS011;70990;50.618;7.346;2023-06-24T05:55:00;12.77;;;6.15;;
81544;SDS011;70990;50.618;7.346;2023-06-24T05:57:26;9.07;;;5.38;;
81544;SDS011;70990;50.618;7.346;2023-06-24T05:59:56;13.73;;;5.47;;
81544;SDS011;70990;50.618;7.346;2023-06-24T06:02:22;11.57;;;5.65;;
81544;SDS011;70990;50.618;7.346;2023-06-24T06:04:49;11.43;;;5.68;;
81544;SDS011;70990;50.618;7.346;2023-06-24T06:07:18;12.60;;;5.28;;
81544;SDS011;70990;50.618;7.346;2023-06-24T06:09:49;8.75;;;5.15;;
81544;SDS011;70990;50.618;7.346;2023-06-24T06:12:14;10.10;;;5.50;;
81544;SDS011;70990;50.618;7.346;2023-06-24T06:14:46;11.02;;;5.38;;
81544;SDS011;70990;50.618;7.346;2023-06-24T06:17:12;8.32;;;5.05;;
81544;SDS011;70990;50.618;7.346;2023-06-24T06:19:49;11.32;;;5.38;;
81544;SDS011;70990;50.618;7.346;2023-06-24T06:22:25;9.27;;;5.93;;
81544;SDS011;70990;50.618;7.346;2023-06-24T06:24:51;12.05;;;5.85;;
81544;SDS011;70990;50.618;7.346;2023-06-24T06:27:20;9.68;;;5.35;;
81544;SDS011;70990;50.618;7.346;2023-06-24T06:29:55;9.88;;;5.90;;
81544;SDS011;70990;50.618;7.346;2023-06-24T06:32:30;8.77;;;5.75;;
81544;SDS011;70990;50.618;7.346;2023-06-24T06:34:59;10.05;;;5.72;;
81544;SDS011;70990;50.618;7.346;2023-06-24T06:37:35;10.95;;;5.68;;
81544;SDS011;70990;50.618;7.346;2023-06-24T06:40:20;9.23;;;5.53;;
81544;SDS011;70990;50.618;7.346;2023-06-24T06:42:46;11.27;;;5.63;;
81544;SDS011;70990;50.618;7.346;2023-06-24T06:45:12;9.68;;;5.45;;
81544;SDS011;70990;50.618;7.346;2023-06-24T06:47:39;11.43;;;5.20;;
81544;SDS011;70990;50.618;7.346;2023-06-24T06:50:12;9.40;;;4.90;;
81544;SDS011;70990;50.618;7.346;2023-06-24T06:52:42;10.85;;;6.15;;
81544;SDS011;70990;50.618;7.346;2023-06-24T06:55:13;12.05;;;5.13;;
81544;SDS011;70990;50.618;7.346;2023-06-24T06:57:39;10.30;;;5.70;;
81544;SDS011;70990;50.618;7.346;2023-06-24T07:00:04;11.13;;;5.32;;
81544;SDS011;70990;50.618;7.346;2023-06-24T07:02:30;9.60;;;4.93;;
81544;SDS011;70990;50.618;7.346;2023-06-24T07:04:56;10.38;;;4.88;;
81544;SDS011;70990;50.618;7.346;2023-06-24T07:07:22;7.93;;;4.45;;
81544;SDS011;70990;50.618;7.346;2023-06-24T07:09:47;7.95;;;4.45;;
81544;SDS011;70990;50.618;7.346;2023-06-24T07:12:15;8.10;;;5.18;;
81544;SDS011;70990;50.618;7.346;2023-06-24T07:14:40;7.93;;;4.13;;
81544;SDS011;70990;50.618;7.346;2023-06-24T07:17:07;9.30;;;4.97;;
81544;SDS011;70990;50.618;7.346;2023-06-24T07:19:32;9.55;;;4.75;;
81544;SDS011;70990;50.618;7.346;2023-06-24T07:22:01;7.88;;;4.30;;
81544;SDS011;70990;50.618;7.346;2023-06-24T07:24:26;10.68;;;5.10;;
81544;SDS011;70990;50.618;7.346;2023-06-24T07:26:52;9.10;;;4.68;;
81544;SDS011;70990;50.618;7.346;2023-06-24T07:29:17;9.93;;;4.90;;
81544;SDS011;70990;50.618;7.346;2023-06-24T07:31:43;8.82;;;4.10;;
81544;SDS011;70990;50.618;7.346;2023-06-24T07:34:08;7.63;;;4.50;;
81544;SDS011;70990;50.618;7.346;2023-06-24T07:36:34;8.10;;;4.00;;
81544;SDS011;70990;50.618;7.346;2023-06-24T07:38:59;9.68;;;4.78;;
81544;SDS011;70990;50.618;7.346;2023-06-24T07:41:25;12.93;;;4.75;;
81544;SDS011;70990;50.618;7.346;2023-06-24T07:43:50;8.68;;;4.60;;
81544;SDS011;70990;50.618;7.346;2023-06-24T07:46:17;15.15;;;4.72;;
81544;SDS011;70990;50.618;7.346;2023-06-24T07:48:42;10.68;;;5.55;;
81544;SDS011;70990;50.618;7.346;2023-06-24T07:51:10;10.38;;;4.85;;
81544;SDS011;70990;50.618;7.346;2023-06-24T07:53:36;11.63;;;5.18;;
81544;SDS011;70990;50.618;7.346;2023-06-24T07:56:02;9.48;;;5.00;;
81544;SDS011;70990;50.618;7.346;2023-06-24T07:58:27;10.70;;;6.15;;
81544;SDS011;70990;50.618;7.346;2023-06-24T08:00:53;10.02;;;4.97;;
81544;SDS011;70990;50.618;7.346;2023-06-24T08:03:18;9.55;;;5.35;;
81544;SDS011;70990;50.618;7.346;2023-06-24T08:05:44;10.63;;;4.70;;
81544;SDS011;70990;50.618;7.346;2023-06-24T08:08:09;10.43;;;5.90;;
81544;SDS011;70990;50.618;7.346;2023-06-24T08:10:35;9.93;;;4.63;;
81544;SDS011;70990;50.618;7.346;2023-06-24T08:13:00;9.60;;;4.88;;
81544;SDS011;70990;50.618;7.346;2023-06-24T08:15:26;9.38;;;4.85;;
81544;SDS011;70990;50.618;7.346;2023-06-24T08:17:52;13.18;;;5.60;;
81544;SDS011;70990;50.618;7.346;2023-06-24T08:20:19;10.57;;;5.10;;
81544;SDS011;70990;50.618;7.346;2023-06-24T08:22:46;9.27;;;3.80;;
81544;SDS011;70990;50.618;7.346;2023-06-24T08:25:11;9.10;;;4.25;;
81544;SDS011;70990;50.618;7.346;2023-06-24T08:27:36;9.63;;;3.92;;
81544;SDS011;70990;50.618;7.346;2023-06-24T08:30:03;7.32;;;3.65;;
81544;SDS011;70990;50.618;7.346;2023-06-24T08:32:30;9.10;;;3.40;;
81544;SDS011;70990;50.618;7.346;2023-06-24T08:34:56;7.65;;;3.75;;
81544;SDS011;70990;50.618;7.346;2023-06-24T08:37:21;7.88;;;3.40;;
81544;SDS011;70990;50.618;7.346;2023-06-24T08:39:47;9.00;;;3.78;;
81544;SDS011;70990;50.618;7.346;2023-06-24T08:42:12;13.07;;;3.50;;
81544;SDS011;70990;50.618;7.346;2023-06-24T08:44:39;6.50;;;3.20;;
81544;SDS011;70990;50.618;7.346;2023-06-24T08:47:15;7.43;;;3.50;;
81544;SDS011;70990;50.618;7.346;2023-06-24T08:49:48;8.60;;;3.75;;
81544;SDS011;70990;50.618;7.346;2023-06-24T08:52:21;7.75;;;2.90;;
81544;SDS011;70990;50.618;7.346;2023-06-24T08:55:15;6.30;;;3.10;;
81544;SDS011;70990;50.618;7.346;2023-06-24T08:57:42;7.20;;;3.20;;
81544;SDS011;70990;50.618;7.346;2023-06-24T09:00:08;7.47;;;3.50;;
81544;SDS011;70990;50.618;7.346;2023-06-24T09:02:36;7.15;;;3.35;;
81544;SDS011;70990;50.618;7.346;2023-06-24T09:05:06;8.60;;;3.50;;
81544;SDS011;70990;50.618;7.346;2023-06-24T09:07:32;6.20;;;3.00;;
81544;SDS011;70990;50.618;7.346;2023-06-24T09:09:58;7.22;;;3.38;;
81544;SDS011;70990;50.618;7.346;2023-06-24T09:12:25;7.97;;;3.30;;
81544;SDS011;70990;50.618;7.346;2023-06-24T09:14:51;9.73;;;3.33;;
81544;SDS011;70990;50.618;7.346;2023-06-24T09:17:17;6.75;;;2.45;;
81544;SDS011;70990;50.618;7.346;2023-06-24T09:19:47;6.72;;;2.65;;
81544;SDS011;70990;50.618;7.346;2023-06-24T09:22:13;7.25;;;2.85;;
81544;SDS011;70990;50.618;7.346;2023-06-24T09:24:44;8.52;;;3.10;;
81544;SDS011;70990;50.618;7.346;2023-06-24T09:27:12;6.13;;;3.10;;
81544;SDS011;70990;50.618;7.346;2023-06-24T09:29:39;7.88;;;3.20;;
81544;SDS011;70990;50.618;7.346;2023-06-24T09:32:06;6.30;;;2.63;;
81544;SDS011;70990;50.618;7.346;2023-06-24T09:34:32;6.57;;;3.20;;
81544;SDS011;70990;50.618;7.346;2023-06-24T09:36:58;5.88;;;2.97;;
81544;SDS011;70990;50.618;7.346;2023-06-24T09:39:25;6.35;;;2.85;;
81544;SDS011;70990;50.618;7.346;2023-06-24T09:44:20;6.25;;;2.95;;
81544;SDS011;70990;50.618;7.346;2023-06-24T09:46:46;7.88;;;3.65;;
81544;SDS011;70990;50.618;7.346;2023-06-24T09:49:12;7.55;;;3.13;;
81544;SDS011;70990;50.618;7.346;2023-06-24T09:51:39;7.07;;;3.42;;
81544;SDS011;70990;50.618;7.346;2023-06-24T09:54:09;6.72;;;2.90;;
81544;SDS011;70990;50.618;7.346;2023-06-24T09:56:36;7.63;;;3.35;;
81544;SDS011;70990;50.618;7.346;2023-06-24T09:59:03;7.00;;;3.03;;
81544;SDS011;70990;50.618;7.346;2023-06-24T10:01:36;6.40;;;3.40;;
81544;SDS011;70990;50.618;7.346;2023-06-24T10:04:05;7.70;;;3.15;;
81544;SDS011;70990;50.618;7.346;2023-06-24T10:06:32;6.03;;;3.10;;
81544;SDS011;70990;50.618;7.346;2023-06-24T10:08:59;5.80;;;2.92;;
81544;SDS011;70990;50.618;7.346;2023-06-24T10:11:28;6.00;;;2.80;;
81544;SDS011;70990;50.618;7.346;2023-06-24T10:13:58;5.78;;;3.03;;
81544;SDS011;70990;50.618;7.346;2023-06-24T10:16:35;6.72;;;2.78;;
81544;SDS011;70990;50.618;7.346;2023-06-24T10:19:02;5.43;;;2.90;;
81544;SDS011;70990;50.618;7.346;2023-06-24T10:27:04;5.75;;;2.65;;
81544;SDS011;70990;50.618;7.346;2023-06-24T10:29:44;6.38;;;2.65;;
81544;SDS011;70990;50.618;7.346;2023-06-24T10:32:17;6.68;;;2.83;;
81544;SDS011;70990;50.618;7.346;2023-06-24T10:34:49;8.60;;;2.97;;
81544;SDS011;70990;50.618;7.346;2023-06-24T10:37:34;5.38;;;2.70;;
81544;SDS011;70990;50.618;7.346;2023-06-24T10:40:34;9.27;;;3.47;;
81544;SDS011;70990;50.618;7.346;2023-06-24T10:46:06;7.35;;;3.00;;
81544;SDS011;70990;50.618;7.346;2023-06-24T10:48:49;8.43;;;4.05;;
81544;SDS011;70990;50.618;7.346;2023-06-24T10:51:25;7.22;;;3.70;;
81544;SDS011;70990;50.618;7.346;2023-06-24T10:53:56;8.15;;;3.15;;
81544;SDS011;70990;50.618;7.346;2023-06-24T10:56:34;7.57;;;3.15;;
81544;SDS011;70990;50.618;7.346;2023-06-24T10:59:14;6.78;;;3.33;;
81544;SDS011;70990;50.618;7.346;2023-06-24T11:01:54;8.50;;;5.43;;
81544;SDS011;70990;50.618;7.346;2023-06-24T11:07:01;21.65;;;4.32;;
81544;SDS011;70990;50.618;7.346;2023-06-24T11:09:32;6.35;;;3.47;;
81544;SDS011;70990;50.618;7.346;2023-06-24T11:11:58;6.82;;;3.30;;
81544;SDS011;70990;50.618;7.346;2023-06-24T11:14:32;10.05;;;6.25;;
81544;SDS011;70990;50.618;7.346;2023-06-24T11:17:12;6.88;;;3.40;;
81544;SDS011;70990;50.618;7.346;2023-06-24T11:19:40;8.70;;;3.92;;
81544;SDS011;70990;50.618;7.346;2023-06-24T11:22:19;6.88;;;2.95;;
81544;SDS011;70990;50.618;7.346;2023-06-24T11:24:54;8.50;;;5.20;;
81544;SDS011;70990;50.618;7.346;2023-06-24T11:30:05;7.15;;;2.70;;
81544;SDS011;70990;50.618;7.346;2023-06-24T11:32:48;8.05;;;3.60;;
81544;SDS011;70990;50.618;7.346;2023-06-24T11:35:15;6.18;;;2.95;;
81544;SDS011;70990;50.618;7.346;2023-06-24T11:37:49;6.53;;;3.20;;
81544;SDS011;70990;50.618;7.346;2023-06-24T11:40:20;6.18;;;3.00;;
81544;SDS011;70990;50.618;7.346;2023-06-24T11:42:48;6.35;;;2.85;;
81544;SDS011;70990;50.618;7.346;2023-06-24T11:45:47;6.40;;;3.03;;
81544;SDS011;70990;50.618;7.346;2023-06-24T11:48:13;8.25;;;3.22;;
81544;SDS011;70990;50.618;7.346;2023-06-24T11:50:39;6.45;;;3.17;;
81544;SDS011;70990;50.618;7.346;2023-06-24T11:56:15;6.00;;;3.38;;
81544;SDS011;70990;50.618;7.346;2023-06-24T11:58:44;5.97;;;2.95;;
81544;SDS011;70990;50.618;7.346;2023-06-24T12:01:15;5.47;;;2.72;;
81544;SDS011;70990;50.618;7.346;2023-06-24T12:04:00;8.32;;;4.05;;
81544;SDS011;70990;50.618;7.346;2023-06-24T12:06:39;7.35;;;3.53;;
81544;SDS011;70990;50.618;7.346;2023-06-24T12:09:15;7.03;;;3.70;;
81544;SDS011;70990;50.618;7.346;2023-06-24T12:11:49;6.03;;;3.17;;
81544;SDS011;70990;50.618;7.346;2023-06-24T12:14:22;9.10;;;3.20;;
81544;SDS011;70990;50.618;7.346;2023-06-24T12:16:53;6.53;;;3.22;;
81544;SDS011;70990;50.618;7.346;2023-06-24T12:19:19;7.40;;;3.60;;
81544;SDS011;70990;50.618;7.346;2023-06-24T12:21:47;7.13;;;3.47;;
81544;SDS011;70990;50.618;7.346;2023-06-24T12:24:21;6.15;;;3.45;;
81544;SDS011;70990;50.618;7.346;2023-06-24T12:26:49;6.15;;;3.30;;
81544;SDS011;70990;50.618;7.346;2023-06-24T12:29:16;6.03;;;3.10;;
81544;SDS011;70990;50.618;7.346;2023-06-24T12:31:42;6.90;;;2.95;;
81544;SDS011;70990;50.618;7.346;2023-06-24T12:34:10;7.50;;;3.33;;
81544;SDS011;70990;50.618;7.346;2023-06-24T12:36:38;5.85;;;3.22;;
81544;SDS011;70990;50.618;7.346;2023-06-24T12:39:07;6.60;;;2.80;;
81544;SDS011;70990;50.618;7.346;2023-06-24T12:41:32;8.10;;;3.15;;
81544;SDS011;70990;50.618;7.346;2023-06-24T12:44:10;9.45;;;2.92;;
81544;SDS011;70990;50.618;7.346;2023-06-24T12:46:35;5.65;;;2.97;;
81544;SDS011;70990;50.618;7.346;2023-06-24T12:49:04;7.10;;;2.90;;
81544;SDS011;70990;50.618;7.346;2023-06-24T12:51:35;5.75;;;2.80;;
81544;SDS011;70990;50.618;7.346;2023-06-24T12:54:11;5.47;;;3.00;;
81544;SDS011;70990;50.618;7.346;2023-06-24T12:56:39;7.07;;;3.28;;
81544;SDS011;70990;50.618;7.346;2023-06-24T12:59:07;6.88;;;3.42;;
81544;SDS011;70990;50.618;7.346;2023-06-24T13:01:36;6.35;;;3.40;;
81544;SDS011;70990;50.618;7.346;2023-06-24T13:04:07;6.07;;;2.85;;
81544;SDS011;70990;50.618;7.346;2023-06-24T13:06:33;6.65;;;3.63;;
81544;SDS011;70990;50.618;7.346;2023-06-24T13:09:01;6.50;;;3.70;;
81544;SDS011;70990;50.618;7.346;2023-06-24T13:11:30;7.13;;;3.50;;
81544;SDS011;70990;50.618;7.346;2023-06-24T13:13:56;5.97;;;3.13;;
81544;SDS011;70990;50.618;7.346;2023-06-24T13:16:35;11.05;;;3.33;;
81544;SDS011;70990;50.618;7.346;2023-06-24T13:19:34;7.68;;;3.15;;
81544;SDS011;70990;50.618;7.346;2023-06-24T13:22:03;5.93;;;3.03;;
81544;SDS011;70990;50.618;7.346;2023-06-24T13:24:42;12.55;;;3.90;;
81544;SDS011;70990;50.618;7.346;2023-06-24T13:27:10;6.47;;;3.15;;
81544;SDS011;70990;50.618;7.346;2023-06-24T13:29:39;7.28;;;3.63;;
81544;SDS011;70990;50.618;7.346;2023-06-24T13:32:09;8.52;;;3.28;;
81544;SDS011;70990;50.618;7.346;2023-06-24T13:34:40;5.95;;;2.97;;
81544;SDS011;70990;50.618;7.346;2023-06-24T13:37:17;7.25;;;3.60;;
81544;SDS011;70990;50.618;7.346;2023-06-24T13:39:51;7.85;;;3.35;;
81544;SDS011;70990;50.618;7.346;2023-06-24T13:42:17;6.03;;;3.42;;
81544;SDS011;70990;50.618;7.346;2023-06-24T13:44:50;6.47;;;3.33;;
81544;SDS011;70990;50.618;7.346;2023-06-24T13:47:19;7.28;;;3.75;;
81544;SDS011;70990;50.618;7.346;2023-06-24T13:49:55;7.13;;;3.33;;
81544;SDS011;70990;50.618;7.346;2023-06-24T13:52:29;6.15;;;3.28;;
81544;SDS011;70990;50.618;7.346;2023-06-24T13:54:55;6.82;;;3.30;;
81544;SDS011;70990;50.618;7.346;2023-06-24T13:57:44;9.02;;;3.58;;
81544;SDS011;70990;50.618;7.346;2023-06-24T14:00:22;6.20;;;3.58;;
81544;SDS011;70990;50.618;7.346;2023-06-24T14:03:02;6.72;;;3.65;;
81544;SDS011;70990;50.618;7.346;2023-06-24T14:05:35;6.30;;;3.13;;
81544;SDS011;70990;50.618;7.346;2023-06-24T14:08:03;6.18;;;3.38;;
81544;SDS011;70990;50.618;7.346;2023-06-24T14:10:29;5.88;;;3.13;;
81544;SDS011;70990;50.618;7.346;2023-06-24T14:13:00;6.88;;;3.70;;
81544;SDS011;70990;50.618;7.346;2023-06-24T14:15:26;9.10;;;3.42;;
81544;SDS011;70990;50.618;7.346;2023-06-24T14:18:00;7.43;;;3.45;;
81544;SDS011;70990;50.618;7.346;2023-06-24T14:20:47;8.63;;;3.58;;
81544;SDS011;70990;50.618;7.346;2023-06-24T14:26:10;8.07;;;3.72;;
81544;SDS011;70990;50.618;7.346;2023-06-24T14:28:38;6.53;;;3.83;;
81544;SDS011;70990;50.618;7.346;2023-06-24T14:31:06;11.05;;;4.45;;
81544;SDS011;70990;50.618;7.346;2023-06-24T14:33:39;7.35;;;2.92;;
81544;SDS011;70990;50.618;7.346;2023-06-24T14:36:46;7.30;;;3.42;;
81544;SDS011;70990;50.618;7.346;2023-06-24T14:39:33;7.10;;;3.83;;
81544;SDS011;70990;50.618;7.346;2023-06-24T14:42:07;6.40;;;3.72;;
81544;SDS011;70990;50.618;7.346;2023-06-24T14:47:13;7.22;;;3.50;;
81544;SDS011;70990;50.618;7.346;2023-06-24T14:49:57;9.38;;;4.10;;
81544;SDS011;70990;50.618;7.346;2023-06-24T14:52:30;7.07;;;3.50;;
81544;SDS011;70990;50.618;7.346;2023-06-24T14:55:02;7.43;;;3.63;;
81544;SDS011;70990;50.618;7.346;2023-06-24T14:57:48;7.30;;;3.67;;
81544;SDS011;70990;50.618;7.346;2023-06-24T15:00:35;7.07;;;4.25;;
81544;SDS011;70990;50.618;7.346;2023-06-24T15:03:05;5.80;;;3.22;;
81544;SDS011;70990;50.618;7.346;2023-06-24T15:05:40;6.82;;;3.35;;
81544;SDS011;70990;50.618;7.346;2023-06-24T15:08:13;6.97;;;3.92;;
81544;SDS011;70990;50.618;7.346;2023-06-24T15:11:05;6.30;;;3.53;;
81544;SDS011;70990;50.618;7.346;2023-06-24T15:13:37;6.00;;;3.10;;
81544;SDS011;70990;50.618;7.346;2023-06-24T15:16:03;7.90;;;3.50;;
81544;SDS011;70990;50.618;7.346;2023-06-24T15:18:43;6.18;;;3.67;;
81544;SDS011;70990;50.618;7.346;2023-06-24T15:21:23;6.60;;;3.63;;
81544;SDS011;70990;50.618;7.346;2023-06-24T15:23:54;6.75;;;3.63;;
81544;SDS011;70990;50.618;7.346;2023-06-24T15:26:22;7.70;;;3.42;;
81544;SDS011;70990;50.618;7.346;2023-06-24T15:28:50;7.03;;;4.07;;
81544;SDS011;70990;50.618;7.346;2023-06-24T15:31:26;6.40;;;3.70;;
81544;SDS011;70990;50.618;7.346;2023-06-24T15:34:16;8.65;;;3.47;;
81544;SDS011;70990;50.618;7.346;2023-06-24T15:36:47;6.75;;;3.60;;
81544;SDS011;70990;50.618;7.346;2023-06-24T15:39:18;6.35;;;3.80;;
81544;SDS011;70990;50.618;7.346;2023-06-24T15:41:51;6.00;;;3.65;;
81544;SDS011;70990;50.618;7.346;2023-06-24T15:44:21;5.72;;;3.50;;
81544;SDS011;70990;50.618;7.346;2023-06-24T15:47:03;7.07;;;3.70;;
81544;SDS011;70990;50.618;7.346;2023-06-24T15:49:32;6.40;;;3.45;;